sensor_id;sensor_type;location;lat;lon;timestamp;temperature;humidity
45983;DHT22;31711;47.158;7.346;2023-05-17T00:02:21;10.10;99.90
45983;DHT22;31711;47.158;7.346;2023-05-17T00:04:47;10.10;99.90
45983;DHT22;31711;47.158;7.346;2023-05-17T00:07:13;10.10;99.90
45983;DHT22;31711;47.158;7.346;2023-05-17T00:09:39;10.10;99.90
45983;DHT22;31711;47.158;7.346;2023-05-17T00:12:05;10.10;99.90
45983;DHT22;31711;47.158;7.346;2023-05-17T00:14:31;10.10;99.90
45983;DHT22;31711;47.158;7.346;2023-05-17T00:16:57;10.10;99.90
45983;DHT22;31711;47.158;7.346;2023-05-17T00:19:23;10.20;99.90
45983;DHT22;31711;47.158;7.346;2023-05-17T00:21:49;10.10;99.90
45983;DHT22;31711;47.158;7.346;2023-05-17T00:24:15;10.10;99.90
45983;DHT22;31711;47.158;7.346;2023-05-17T00:26:41;10.10;99.90
45983;DHT22;31711;47.158;7.346;2023-05-17T00:29:07;10.10;99.90
45983;DHT22;31711;47.158;7.346;2023-05-17T00:31:33;10.10;99.90
45983;DHT22;31711;47.158;7.346;2023-05-17T00:33:59;10.10;99.90
45983;DHT22;31711;47.158;7.346;2023-05-17T00:36:25;10.10;99.90
45983;DHT22;31711;47.158;7.346;2023-05-17T00:38:51;10.10;99.90
45983;DHT22;31711;47.158;7.346;2023-05-17T00:41:17;10.00;99.90
45983;DHT22;31711;47.158;7.346;2023-05-17T00:43:43;10.00;99.90
45983;DHT22;31711;47.158;7.346;2023-05-17T00:46:09;10.00;99.90
45983;DHT22;31711;47.158;7.346;2023-05-17T00:48:35;10.00;99.90
45983;DHT22;31711;47.158;7.346;2023-05-17T00:51:01;10.00;99.90
45983;DHT22;31711;47.158;7.346;2023-05-17T00:53:27;10.00;99.90
45983;DHT22;31711;47.158;7.346;2023-05-17T00:55:54;10.00;99.90
45983;DHT22;31711;47.158;7.346;2023-05-17T00:58:21;10.00;99.90
45983;DHT22;31711;47.158;7.346;2023-05-17T01:00:47;10.00;99.90
45983;DHT22;31711;47.158;7.346;2023-05-17T01:03:14;10.00;99.90
45983;DHT22;31711;47.158;7.346;2023-05-17T01:05:41;10.00;99.90
45983;DHT22;31711;47.158;7.346;2023-05-17T01:08:07;10.00;99.90
45983;DHT22;31711;47.158;7.346;2023-05-17T01:13:26;10.00;99.90
45983;DHT22;31711;47.158;7.346;2023-05-17T01:16:17;10.00;99.90
45983;DHT22;31711;47.158;7.346;2023-05-17T01:18:49;10.00;99.90
45983;DHT22;31711;47.158;7.346;2023-05-17T01:24:24;10.00;99.90
45983;DHT22;31711;47.158;7.346;2023-05-17T01:26:52;10.00;99.90
45983;DHT22;31711;47.158;7.346;2023-05-17T01:29:22;10.00;99.90
45983;DHT22;31711;47.158;7.346;2023-05-17T01:31:51;10.00;99.90
45983;DHT22;31711;47.158;7.346;2023-05-17T01:34:28;10.00;99.90
45983;DHT22;31711;47.158;7.346;2023-05-17T01:36:54;10.00;99.90
45983;DHT22;31711;47.158;7.346;2023-05-17T01:39:20;10.00;99.90
45983;DHT22;31711;47.158;7.346;2023-05-17T01:41:58;9.90;99.90
45983;DHT22;31711;47.158;7.346;2023-05-17T01:44:49;9.90;99.90
45983;DHT22;31711;47.158;7.346;2023-05-17T01:49:59;9.90;99.90
45983;DHT22;31711;47.158;7.346;2023-05-17T01:52:47;9.90;99.90
45983;DHT22;31711;47.158;7.346;2023-05-17T01:57:58;9.90;99.90
45983;DHT22;31711;47.158;7.346;2023-05-17T02:00:28;9.90;99.90
45983;DHT22;31711;47.158;7.346;2023-05-17T02:02:55;9.90;99.90
45983;DHT22;31711;47.158;7.346;2023-05-17T02:05:21;9.90;99.90
45983;DHT22;31711;47.158;7.346;2023-05-17T02:07:47;9.90;99.90
45983;DHT22;31711;47.158;7.346;2023-05-17T02:10:13;9.90;99.90
45983;DHT22;31711;47.158;7.346;2023-05-17T02:12:39;9.80;99.90
45983;DHT22;31711;47.158;7.346;2023-05-17T02:15:05;9.80;99.90
45983;DHT22;31711;47.158;7.346;2023-05-17T02:17:32;9.80;99.90
45983;DHT22;31711;47.158;7.346;2023-05-17T02:19:58;9.80;99.90
45983;DHT22;31711;47.158;7.346;2023-05-17T02:22:24;9.80;99.90
45983;DHT22;31711;47.158;7.346;2023-05-17T02:24:50;9.80;99.90
45983;DHT22;31711;47.158;7.346;2023-05-17T02:27:16;9.80;99.90
45983;DHT22;31711;47.158;7.346;2023-05-17T02:29:42;9.80;99.90
45983;DHT22;31711;47.158;7.346;2023-05-17T02:32:08;9.90;99.90
45983;DHT22;31711;47.158;7.346;2023-05-17T02:34:34;9.80;99.90
45983;DHT22;31711;47.158;7.346;2023-05-17T02:37:00;9.80;99.90
45983;DHT22;31711;47.158;7.346;2023-05-17T02:39:26;9.80;99.90
45983;DHT22;31711;47.158;7.346;2023-05-17T02:41:52;9.80;99.90
45983;DHT22;31711;47.158;7.346;2023-05-17T02:44:18;9.80;99.90
45983;DHT22;31711;47.158;7.346;2023-05-17T02:46:44;9.80;99.90
45983;DHT22;31711;47.158;7.346;2023-05-17T02:49:10;9.70;99.90
45983;DHT22;31711;47.158;7.346;2023-05-17T02:51:36;9.70;99.90
45983;DHT22;31711;47.158;7.346;2023-05-17T02:54:02;9.70;99.90
45983;DHT22;31711;47.158;7.346;2023-05-17T02:56:28;9.70;99.90
45983;DHT22;31711;47.158;7.346;2023-05-17T02:58:54;9.70;99.90
45983;DHT22;31711;47.158;7.346;2023-05-17T03:01:22;9.70;99.90
45983;DHT22;31711;47.158;7.346;2023-05-17T03:03:48;9.70;99.90
45983;DHT22;31711;47.158;7.346;2023-05-17T03:06:14;9.70;99.90
45983;DHT22;31711;47.158;7.346;2023-05-17T03:08:40;9.70;99.90
45983;DHT22;31711;47.158;7.346;2023-05-17T03:11:06;9.70;99.90
45983;DHT22;31711;47.158;7.346;2023-05-17T03:13:32;9.70;99.90
45983;DHT22;31711;47.158;7.346;2023-05-17T03:15:58;9.70;99.90
45983;DHT22;31711;47.158;7.346;2023-05-17T03:18:24;9.70;99.90
45983;DHT22;31711;47.158;7.346;2023-05-17T03:20:50;9.80;99.90
45983;DHT22;31711;47.158;7.346;2023-05-17T03:23:16;9.70;99.90
45983;DHT22;31711;47.158;7.346;2023-05-17T03:25:42;9.70;99.90
45983;DHT22;31711;47.158;7.346;2023-05-17T03:28:08;9.70;99.90
45983;DHT22;31711;47.158;7.346;2023-05-17T03:30:33;9.70;99.90
45983;DHT22;31711;47.158;7.346;2023-05-17T03:32:59;9.70;99.90
45983;DHT22;31711;47.158;7.346;2023-05-17T03:35:25;9.70;99.90
45983;DHT22;31711;47.158;7.346;2023-05-17T03:37:51;9.70;99.90
45983;DHT22;31711;47.158;7.346;2023-05-17T03:40:17;9.60;99.90
45983;DHT22;31711;47.158;7.346;2023-05-17T03:42:43;9.70;99.90
45983;DHT22;31711;47.158;7.346;2023-05-17T03:45:09;9.70;99.90
45983;DHT22;31711;47.158;7.346;2023-05-17T03:47:35;9.70;99.90
45983;DHT22;31711;47.158;7.346;2023-05-17T03:50:01;9.60;99.90
45983;DHT22;31711;47.158;7.346;2023-05-17T03:52:27;9.60;99.90
45983;DHT22;31711;47.158;7.346;2023-05-17T03:54:53;9.70;99.90
45983;DHT22;31711;47.158;7.346;2023-05-17T03:57:20;9.70;99.90
45983;DHT22;31711;47.158;7.346;2023-05-17T03:59:46;9.60;99.90
45983;DHT22;31711;47.158;7.346;2023-05-17T04:02:14;9.60;99.90
45983;DHT22;31711;47.158;7.346;2023-05-17T04:04:47;9.60;99.90
45983;DHT22;31711;47.158;7.346;2023-05-17T04:07:14;9.60;99.90
45983;DHT22;31711;47.158;7.346;2023-05-17T04:09:40;9.60;99.90
45983;DHT22;31711;47.158;7.346;2023-05-17T04:12:06;9.60;99.90
45983;DHT22;31711;47.158;7.346;2023-05-17T04:14:33;9.60;99.90
45983;DHT22;31711;47.158;7.346;2023-05-17T04:16:59;9.60;99.90
45983;DHT22;31711;47.158;7.346;2023-05-17T04:19:25;9.60;99.90
45983;DHT22;31711;47.158;7.346;2023-05-17T04:21:51;9.60;99.90
45983;DHT22;31711;47.158;7.346;2023-05-17T04:24:17;9.60;99.90
45983;DHT22;31711;47.158;7.346;2023-05-17T04:26:43;9.60;99.90
45983;DHT22;31711;47.158;7.346;2023-05-17T04:29:09;9.60;99.90
45983;DHT22;31711;47.158;7.346;2023-05-17T04:31:35;9.60;99.90
45983;DHT22;31711;47.158;7.346;2023-05-17T04:34:01;9.60;99.90
45983;DHT22;31711;47.158;7.346;2023-05-17T04:36:27;9.60;99.90
45983;DHT22;31711;47.158;7.346;2023-05-17T04:38:53;9.70;99.90
45983;DHT22;31711;47.158;7.346;2023-05-17T04:41:19;9.70;99.90
45983;DHT22;31711;47.158;7.346;2023-05-17T04:43:45;9.60;99.90
45983;DHT22;31711;47.158;7.346;2023-05-17T04:46:11;9.70;99.90
45983;DHT22;31711;47.158;7.346;2023-05-17T04:48:37;9.60;99.90
45983;DHT22;31711;47.158;7.346;2023-05-17T04:51:03;9.70;99.90
45983;DHT22;31711;47.158;7.346;2023-05-17T04:53:30;9.70;99.90
45983;DHT22;31711;47.158;7.346;2023-05-17T04:55:57;9.70;99.90
45983;DHT22;31711;47.158;7.346;2023-05-17T04:58:23;9.70;99.90
45983;DHT22;31711;47.158;7.346;2023-05-17T05:00:50;9.70;99.90
45983;DHT22;31711;47.158;7.346;2023-05-17T05:03:16;9.70;99.90
45983;DHT22;31711;47.158;7.346;2023-05-17T05:05:42;9.70;99.90
45983;DHT22;31711;47.158;7.346;2023-05-17T05:08:08;9.70;99.90
45983;DHT22;31711;47.158;7.346;2023-05-17T05:10:35;9.70;99.90
45983;DHT22;31711;47.158;7.346;2023-05-17T05:13:01;9.70;99.90
45983;DHT22;31711;47.158;7.346;2023-05-17T05:15:27;9.70;99.90
45983;DHT22;31711;47.158;7.346;2023-05-17T05:17:53;9.70;99.90
45983;DHT22;31711;47.158;7.346;2023-05-17T05:20:19;9.70;99.90
45983;DHT22;31711;47.158;7.346;2023-05-17T05:22:45;9.70;99.90
45983;DHT22;31711;47.158;7.346;2023-05-17T05:25:11;9.70;99.90
45983;DHT22;31711;47.158;7.346;2023-05-17T05:27:37;9.70;99.90
45983;DHT22;31711;47.158;7.346;2023-05-17T05:30:03;9.70;99.90
45983;DHT22;31711;47.158;7.346;2023-05-17T05:32:29;9.70;99.90
45983;DHT22;31711;47.158;7.346;2023-05-17T05:34:55;9.70;99.90
45983;DHT22;31711;47.158;7.346;2023-05-17T05:37:21;9.70;99.90
45983;DHT22;31711;47.158;7.346;2023-05-17T05:39:47;9.80;99.90
45983;DHT22;31711;47.158;7.346;2023-05-17T05:42:13;9.80;99.90
45983;DHT22;31711;47.158;7.346;2023-05-17T05:44:39;9.80;99.90
45983;DHT22;31711;47.158;7.346;2023-05-17T05:47:05;9.80;99.90
45983;DHT22;31711;47.158;7.346;2023-05-17T05:49:31;9.90;99.90
45983;DHT22;31711;47.158;7.346;2023-05-17T05:51:57;9.90;99.90
45983;DHT22;31711;47.158;7.346;2023-05-17T05:54:23;9.90;99.90
45983;DHT22;31711;47.158;7.346;2023-05-17T05:56:49;9.90;99.90
45983;DHT22;31711;47.158;7.346;2023-05-17T05:59:16;9.90;99.90
45983;DHT22;31711;47.158;7.346;2023-05-17T06:01:41;9.90;99.90
45983;DHT22;31711;47.158;7.346;2023-05-17T06:04:08;10.00;99.90
45983;DHT22;31711;47.158;7.346;2023-05-17T06:06:34;9.90;99.90
45983;DHT22;31711;47.158;7.346;2023-05-17T06:09:00;9.90;99.90
45983;DHT22;31711;47.158;7.346;2023-05-17T06:11:26;9.90;99.90
45983;DHT22;31711;47.158;7.346;2023-05-17T06:13:52;9.90;99.90
45983;DHT22;31711;47.158;7.346;2023-05-17T06:16:18;9.90;99.90
45983;DHT22;31711;47.158;7.346;2023-05-17T06:18:44;10.00;99.90
45983;DHT22;31711;47.158;7.346;2023-05-17T06:21:10;10.10;99.90
45983;DHT22;31711;47.158;7.346;2023-05-17T06:23:39;10.20;99.90
45983;DHT22;31711;47.158;7.346;2023-05-17T06:26:06;10.30;99.90
45983;DHT22;31711;47.158;7.346;2023-05-17T06:28:35;10.20;99.90
45983;DHT22;31711;47.158;7.346;2023-05-17T06:31:01;10.20;99.90
45983;DHT22;31711;47.158;7.346;2023-05-17T06:33:28;10.30;99.90
45983;DHT22;31711;47.158;7.346;2023-05-17T06:35:54;10.40;99.90
45983;DHT22;31711;47.158;7.346;2023-05-17T06:38:21;10.50;99.90
45983;DHT22;31711;47.158;7.346;2023-05-17T06:40:51;10.60;99.90
45983;DHT22;31711;47.158;7.346;2023-05-17T06:43:18;10.50;99.90
45983;DHT22;31711;47.158;7.346;2023-05-17T06:45:44;10.50;99.90
45983;DHT22;31711;47.158;7.346;2023-05-17T06:48:11;10.60;99.90
45983;DHT22;31711;47.158;7.346;2023-05-17T06:50:37;10.70;99.90
45983;DHT22;31711;47.158;7.346;2023-05-17T06:53:03;10.80;99.90
45983;DHT22;31711;47.158;7.346;2023-05-17T06:55:30;10.90;99.90
45983;DHT22;31711;47.158;7.346;2023-05-17T06:57:56;10.90;99.90
45983;DHT22;31711;47.158;7.346;2023-05-17T07:00:22;10.80;99.90
45983;DHT22;31711;47.158;7.346;2023-05-17T07:02:48;10.80;99.90
45983;DHT22;31711;47.158;7.346;2023-05-17T07:05:14;10.90;99.90
45983;DHT22;31711;47.158;7.346;2023-05-17T07:07:40;10.90;99.90
45983;DHT22;31711;47.158;7.346;2023-05-17T07:10:07;11.00;99.90
45983;DHT22;31711;47.158;7.346;2023-05-17T07:12:33;11.00;99.90
45983;DHT22;31711;47.158;7.346;2023-05-17T07:14:59;11.00;99.90
45983;DHT22;31711;47.158;7.346;2023-05-17T07:17:25;11.00;99.90
45983;DHT22;31711;47.158;7.346;2023-05-17T07:19:50;11.20;99.90
45983;DHT22;31711;47.158;7.346;2023-05-17T07:22:17;11.10;99.90
45983;DHT22;31711;47.158;7.346;2023-05-17T07:24:44;11.20;99.90
45983;DHT22;31711;47.158;7.346;2023-05-17T07:27:10;11.20;99.90
45983;DHT22;31711;47.158;7.346;2023-05-17T07:29:36;11.00;99.90
45983;DHT22;31711;47.158;7.346;2023-05-17T07:32:02;11.10;99.90
45983;DHT22;31711;47.158;7.346;2023-05-17T07:34:31;11.00;99.90
45983;DHT22;31711;47.158;7.346;2023-05-17T07:36:57;10.90;99.90
45983;DHT22;31711;47.158;7.346;2023-05-17T07:39:23;11.00;99.90
45983;DHT22;31711;47.158;7.346;2023-05-17T07:41:49;11.20;99.90
45983;DHT22;31711;47.158;7.346;2023-05-17T07:44:15;11.30;99.90
45983;DHT22;31711;47.158;7.346;2023-05-17T07:46:41;11.10;99.90
45983;DHT22;31711;47.158;7.346;2023-05-17T07:49:07;11.40;99.90
45983;DHT22;31711;47.158;7.346;2023-05-17T07:51:33;11.50;99.90
45983;DHT22;31711;47.158;7.346;2023-05-17T07:54:00;11.60;99.90
45983;DHT22;31711;47.158;7.346;2023-05-17T07:56:28;11.60;99.90
45983;DHT22;31711;47.158;7.346;2023-05-17T07:58:54;11.60;99.90
45983;DHT22;31711;47.158;7.346;2023-05-17T08:01:20;11.50;99.90
45983;DHT22;31711;47.158;7.346;2023-05-17T08:03:48;11.60;99.90
45983;DHT22;31711;47.158;7.346;2023-05-17T08:06:15;11.60;99.90
45983;DHT22;31711;47.158;7.346;2023-05-17T08:08:41;11.90;99.90
45983;DHT22;31711;47.158;7.346;2023-05-17T08:11:09;12.00;99.90
45983;DHT22;31711;47.158;7.346;2023-05-17T08:13:36;12.20;99.90
45983;DHT22;31711;47.158;7.346;2023-05-17T08:16:02;12.10;99.90
45983;DHT22;31711;47.158;7.346;2023-05-17T08:18:33;11.90;99.90
45983;DHT22;31711;47.158;7.346;2023-05-17T08:20:58;11.80;99.90
45983;DHT22;31711;47.158;7.346;2023-05-17T08:23:24;11.80;99.90
45983;DHT22;31711;47.158;7.346;2023-05-17T08:25:50;11.60;99.90
45983;DHT22;31711;47.158;7.346;2023-05-17T08:28:17;11.60;99.90
45983;DHT22;31711;47.158;7.346;2023-05-17T08:30:43;11.60;99.90
45983;DHT22;31711;47.158;7.346;2023-05-17T08:33:09;11.60;99.90
45983;DHT22;31711;47.158;7.346;2023-05-17T08:35:36;11.70;99.90
45983;DHT22;31711;47.158;7.346;2023-05-17T08:38:02;11.80;99.90
45983;DHT22;31711;47.158;7.346;2023-05-17T08:40:28;11.90;99.90
45983;DHT22;31711;47.158;7.346;2023-05-17T08:42:54;12.00;99.90
45983;DHT22;31711;47.158;7.346;2023-05-17T08:45:20;11.90;99.90
45983;DHT22;31711;47.158;7.346;2023-05-17T08:47:47;12.10;99.90
45983;DHT22;31711;47.158;7.346;2023-05-17T08:50:13;12.00;99.90
45983;DHT22;31711;47.158;7.346;2023-05-17T08:52:40;12.10;99.90
45983;DHT22;31711;47.158;7.346;2023-05-17T08:55:09;12.30;99.90
45983;DHT22;31711;47.158;7.346;2023-05-17T08:57:36;12.30;99.90
45983;DHT22;31711;47.158;7.346;2023-05-17T09:00:04;12.30;99.90
45983;DHT22;31711;47.158;7.346;2023-05-17T09:02:40;12.40;99.90
45983;DHT22;31711;47.158;7.346;2023-05-17T09:05:08;12.50;99.90
45983;DHT22;31711;47.158;7.346;2023-05-17T09:07:34;12.40;99.90
45983;DHT22;31711;47.158;7.346;2023-05-17T09:10:01;12.60;99.90
45983;DHT22;31711;47.158;7.346;2023-05-17T09:12:31;12.80;99.90
45983;DHT22;31711;47.158;7.346;2023-05-17T09:15:16;13.00;99.90
45983;DHT22;31711;47.158;7.346;2023-05-17T09:17:47;13.10;99.90
45983;DHT22;31711;47.158;7.346;2023-05-17T09:20:21;13.20;99.90
45983;DHT22;31711;47.158;7.346;2023-05-17T09:22:49;13.30;99.90
45983;DHT22;31711;47.158;7.346;2023-05-17T09:25:22;13.60;99.90
45983;DHT22;31711;47.158;7.346;2023-05-17T09:27:52;13.60;99.90
45983;DHT22;31711;47.158;7.346;2023-05-17T09:30:18;13.80;99.90
45983;DHT22;31711;47.158;7.346;2023-05-17T09:32:44;13.90;99.90
45983;DHT22;31711;47.158;7.346;2023-05-17T09:35:10;14.10;99.90
45983;DHT22;31711;47.158;7.346;2023-05-17T09:37:37;14.00;99.90
45983;DHT22;31711;47.158;7.346;2023-05-17T09:40:04;14.10;99.90
45983;DHT22;31711;47.158;7.346;2023-05-17T09:42:33;14.10;99.90
45983;DHT22;31711;47.158;7.346;2023-05-17T09:45:04;13.90;99.90
45983;DHT22;31711;47.158;7.346;2023-05-17T09:47:30;14.00;99.90
45983;DHT22;31711;47.158;7.346;2023-05-17T09:50:00;14.10;99.90
45983;DHT22;31711;47.158;7.346;2023-05-17T09:52:28;14.50;99.90
45983;DHT22;31711;47.158;7.346;2023-05-17T09:54:58;14.30;99.90
45983;DHT22;31711;47.158;7.346;2023-05-17T09:57:26;14.20;99.90
45983;DHT22;31711;47.158;7.346;2023-05-17T09:59:55;14.10;99.90
45983;DHT22;31711;47.158;7.346;2023-05-17T10:02:26;14.20;99.90
45983;DHT22;31711;47.158;7.346;2023-05-17T10:04:55;14.10;99.90
45983;DHT22;31711;47.158;7.346;2023-05-17T10:07:25;14.20;99.90
45983;DHT22;31711;47.158;7.346;2023-05-17T10:09:52;14.20;99.90
45983;DHT22;31711;47.158;7.346;2023-05-17T10:12:24;14.50;99.90
45983;DHT22;31711;47.158;7.346;2023-05-17T10:14:52;14.60;99.30
45983;DHT22;31711;47.158;7.346;2023-05-17T10:17:21;14.60;99.90
45983;DHT22;31711;47.158;7.346;2023-05-17T10:19:48;14.30;99.40
45983;DHT22;31711;47.158;7.346;2023-05-17T10:22:15;14.50;98.20
45983;DHT22;31711;47.158;7.346;2023-05-17T10:24:43;14.60;99.00
45983;DHT22;31711;47.158;7.346;2023-05-17T10:27:11;14.80;99.90
45983;DHT22;31711;47.158;7.346;2023-05-17T10:29:38;14.80;99.50
45983;DHT22;31711;47.158;7.346;2023-05-17T10:32:05;14.80;98.90
45983;DHT22;31711;47.158;7.346;2023-05-17T10:34:34;14.50;98.40
45983;DHT22;31711;47.158;7.346;2023-05-17T10:37:01;14.40;99.00
45983;DHT22;31711;47.158;7.346;2023-05-17T10:39:27;14.30;98.40
45983;DHT22;31711;47.158;7.346;2023-05-17T10:41:55;14.60;99.10
45983;DHT22;31711;47.158;7.346;2023-05-17T10:44:22;14.50;98.10
45983;DHT22;31711;47.158;7.346;2023-05-17T10:46:53;14.70;97.40
45983;DHT22;31711;47.158;7.346;2023-05-17T10:49:23;14.80;98.10
45983;DHT22;31711;47.158;7.346;2023-05-17T10:51:51;15.30;97.80
45983;DHT22;31711;47.158;7.346;2023-05-17T10:54:17;15.30;98.70
45983;DHT22;31711;47.158;7.346;2023-05-17T10:56:50;15.40;97.00
45983;DHT22;31711;47.158;7.346;2023-05-17T10:59:23;15.50;96.60
45983;DHT22;31711;47.158;7.346;2023-05-17T11:04:37;15.00;96.90
45983;DHT22;31711;47.158;7.346;2023-05-17T11:09:45;15.70;96.10
45983;DHT22;31711;47.158;7.346;2023-05-17T11:12:14;15.30;96.00
45983;DHT22;31711;47.158;7.346;2023-05-17T11:17:17;15.70;95.20
45983;DHT22;31711;47.158;7.346;2023-05-17T11:22:25;15.60;96.00
45983;DHT22;31711;47.158;7.346;2023-05-17T11:24:54;15.40;94.80
45983;DHT22;31711;47.158;7.346;2023-05-17T11:27:22;15.50;95.30
45983;DHT22;31711;47.158;7.346;2023-05-17T11:29:52;15.40;95.80
45983;DHT22;31711;47.158;7.346;2023-05-17T11:32:27;15.80;96.30
45983;DHT22;31711;47.158;7.346;2023-05-17T11:34:54;15.90;95.90
45983;DHT22;31711;47.158;7.346;2023-05-17T11:37:29;15.90;95.50
45983;DHT22;31711;47.158;7.346;2023-05-17T11:40:05;16.20;96.00
45983;DHT22;31711;47.158;7.346;2023-05-17T11:42:32;16.00;95.60
45983;DHT22;31711;47.158;7.346;2023-05-17T11:45:02;16.10;94.90
45983;DHT22;31711;47.158;7.346;2023-05-17T11:47:28;16.00;95.50
45983;DHT22;31711;47.158;7.346;2023-05-17T11:49:55;16.00;94.70
45983;DHT22;31711;47.158;7.346;2023-05-17T11:52:26;16.30;96.50
45983;DHT22;31711;47.158;7.346;2023-05-17T11:54:53;15.80;95.20
45983;DHT22;31711;47.158;7.346;2023-05-17T11:57:20;15.70;94.40
45983;DHT22;31711;47.158;7.346;2023-05-17T11:59:47;15.70;94.50
45983;DHT22;31711;47.158;7.346;2023-05-17T12:02:27;15.50;94.60
45983;DHT22;31711;47.158;7.346;2023-05-17T12:04:54;15.60;95.40
45983;DHT22;31711;47.158;7.346;2023-05-17T12:07:20;15.50;94.50
45983;DHT22;31711;47.158;7.346;2023-05-17T12:09:46;15.30;94.90
45983;DHT22;31711;47.158;7.346;2023-05-17T12:12:12;15.30;95.40
45983;DHT22;31711;47.158;7.346;2023-05-17T12:14:42;15.20;96.20
45983;DHT22;31711;47.158;7.346;2023-05-17T12:17:11;15.10;95.20
45983;DHT22;31711;47.158;7.346;2023-05-17T12:19:38;15.30;95.50
45983;DHT22;31711;47.158;7.346;2023-05-17T12:22:07;15.70;96.70
45983;DHT22;31711;47.158;7.346;2023-05-17T12:24:38;15.60;96.40
45983;DHT22;31711;47.158;7.346;2023-05-17T12:27:05;15.60;95.70
45983;DHT22;31711;47.158;7.346;2023-05-17T12:29:31;15.80;96.70
45983;DHT22;31711;47.158;7.346;2023-05-17T12:31:59;15.70;95.30
45983;DHT22;31711;47.158;7.346;2023-05-17T12:34:29;15.70;96.20
45983;DHT22;31711;47.158;7.346;2023-05-17T12:36:56;15.50;95.30
45983;DHT22;31711;47.158;7.346;2023-05-17T12:39:23;15.40;95.40
45983;DHT22;31711;47.158;7.346;2023-05-17T12:41:50;15.30;95.00
45983;DHT22;31711;47.158;7.346;2023-05-17T12:44:17;15.30;96.40
45983;DHT22;31711;47.158;7.346;2023-05-17T12:46:48;15.50;96.40
45983;DHT22;31711;47.158;7.346;2023-05-17T12:49:22;15.20;95.60
45983;DHT22;31711;47.158;7.346;2023-05-17T12:51:48;15.30;96.00
45983;DHT22;31711;47.158;7.346;2023-05-17T12:56:50;15.50;95.50
45983;DHT22;31711;47.158;7.346;2023-05-17T12:59:17;15.50;95.70
45983;DHT22;31711;47.158;7.346;2023-05-17T13:01:44;15.70;96.60
45983;DHT22;31711;47.158;7.346;2023-05-17T13:04:11;15.30;96.10
45983;DHT22;31711;47.158;7.346;2023-05-17T13:06:53;15.20;95.50
45983;DHT22;31711;47.158;7.346;2023-05-17T13:09:21;15.40;97.20
45983;DHT22;31711;47.158;7.346;2023-05-17T13:11:55;15.60;96.50
45983;DHT22;31711;47.158;7.346;2023-05-17T13:14:47;15.70;96.20
45983;DHT22;31711;47.158;7.346;2023-05-17T13:17:18;15.70;95.90
45983;DHT22;31711;47.158;7.346;2023-05-17T13:19:48;15.80;96.80
45983;DHT22;31711;47.158;7.346;2023-05-17T13:22:14;15.80;96.40
45983;DHT22;31711;47.158;7.346;2023-05-17T13:24:41;15.80;94.60
45983;DHT22;31711;47.158;7.346;2023-05-17T13:27:07;15.70;95.60
45983;DHT22;31711;47.158;7.346;2023-05-17T13:29:39;15.60;96.30
45983;DHT22;31711;47.158;7.346;2023-05-17T13:32:07;15.80;96.40
45983;DHT22;31711;47.158;7.346;2023-05-17T13:34:33;16.00;95.50
45983;DHT22;31711;47.158;7.346;2023-05-17T13:36:59;16.30;96.50
45983;DHT22;31711;47.158;7.346;2023-05-17T13:39:25;16.50;95.90
45983;DHT22;31711;47.158;7.346;2023-05-17T13:41:51;16.70;94.80
45983;DHT22;31711;47.158;7.346;2023-05-17T13:44:17;16.60;95.30
45983;DHT22;31711;47.158;7.346;2023-05-17T13:46:43;16.30;95.70
45983;DHT22;31711;47.158;7.346;2023-05-17T13:49:09;16.10;96.30
45983;DHT22;31711;47.158;7.346;2023-05-17T13:51:36;16.00;95.60
45983;DHT22;31711;47.158;7.346;2023-05-17T13:54:05;16.10;95.60
45983;DHT22;31711;47.158;7.346;2023-05-17T13:56:32;15.90;94.60
45983;DHT22;31711;47.158;7.346;2023-05-17T13:58:58;16.10;95.10
45983;DHT22;31711;47.158;7.346;2023-05-17T14:01:24;16.10;95.50
45983;DHT22;31711;47.158;7.346;2023-05-17T14:03:50;16.20;95.60
45983;DHT22;31711;47.158;7.346;2023-05-17T14:06:16;16.10;95.50
45983;DHT22;31711;47.158;7.346;2023-05-17T14:08:42;15.90;95.40
45983;DHT22;31711;47.158;7.346;2023-05-17T14:11:11;15.60;95.10
45983;DHT22;31711;47.158;7.346;2023-05-17T14:13:37;15.40;97.40
45983;DHT22;31711;47.158;7.346;2023-05-17T14:16:03;15.70;96.10
45983;DHT22;31711;47.158;7.346;2023-05-17T14:18:29;15.70;94.70
45983;DHT22;31711;47.158;7.346;2023-05-17T14:20:57;15.40;93.90
45983;DHT22;31711;47.158;7.346;2023-05-17T14:23:23;15.60;95.50
45983;DHT22;31711;47.158;7.346;2023-05-17T14:25:49;15.90;95.30
45983;DHT22;31711;47.158;7.346;2023-05-17T14:28:15;16.20;95.00
45983;DHT22;31711;47.158;7.346;2023-05-17T14:30:43;16.00;94.50
45983;DHT22;31711;47.158;7.346;2023-05-17T14:33:09;15.70;93.90
45983;DHT22;31711;47.158;7.346;2023-05-17T14:35:35;15.40;94.00
45983;DHT22;31711;47.158;7.346;2023-05-17T14:38:01;15.30;93.80
45983;DHT22;31711;47.158;7.346;2023-05-17T14:40:27;15.40;95.00
45983;DHT22;31711;47.158;7.346;2023-05-17T14:42:53;15.70;95.60
45983;DHT22;31711;47.158;7.346;2023-05-17T14:45:19;15.60;95.50
45983;DHT22;31711;47.158;7.346;2023-05-17T14:47:45;15.40;95.10
45983;DHT22;31711;47.158;7.346;2023-05-17T14:50:11;15.40;95.40
45983;DHT22;31711;47.158;7.346;2023-05-17T14:52:37;15.30;95.30
45983;DHT22;31711;47.158;7.346;2023-05-17T14:55:03;15.20;95.90
45983;DHT22;31711;47.158;7.346;2023-05-17T14:57:29;15.20;95.30
45983;DHT22;31711;47.158;7.346;2023-05-17T14:59:56;15.10;95.00
45983;DHT22;31711;47.158;7.346;2023-05-17T15:02:22;15.00;95.40
45983;DHT22;31711;47.158;7.346;2023-05-17T15:04:48;15.00;95.90
45983;DHT22;31711;47.158;7.346;2023-05-17T15:07:14;14.90;95.60
45983;DHT22;31711;47.158;7.346;2023-05-17T15:09:41;15.00;95.40
45983;DHT22;31711;47.158;7.346;2023-05-17T15:12:09;15.20;96.10
45983;DHT22;31711;47.158;7.346;2023-05-17T15:14:36;15.10;95.30
45983;DHT22;31711;47.158;7.346;2023-05-17T15:17:02;15.00;95.30
45983;DHT22;31711;47.158;7.346;2023-05-17T15:19:29;15.10;96.00
45983;DHT22;31711;47.158;7.346;2023-05-17T15:21:55;15.20;97.10
45983;DHT22;31711;47.158;7.346;2023-05-17T15:24:21;15.00;96.60
45983;DHT22;31711;47.158;7.346;2023-05-17T15:26:47;14.90;96.20
45983;DHT22;31711;47.158;7.346;2023-05-17T15:29:13;14.80;96.30
45983;DHT22;31711;47.158;7.346;2023-05-17T15:31:39;14.60;95.50
45983;DHT22;31711;47.158;7.346;2023-05-17T15:34:05;14.50;95.20
45983;DHT22;31711;47.158;7.346;2023-05-17T15:36:33;14.40;96.00
45983;DHT22;31711;47.158;7.346;2023-05-17T15:38:59;14.50;95.90
45983;DHT22;31711;47.158;7.346;2023-05-17T15:41:25;14.50;95.90
45983;DHT22;31711;47.158;7.346;2023-05-17T15:43:53;14.60;95.60
45983;DHT22;31711;47.158;7.346;2023-05-17T15:46:19;14.80;96.60
45983;DHT22;31711;47.158;7.346;2023-05-17T15:48:46;14.80;96.10
45983;DHT22;31711;47.158;7.346;2023-05-17T15:51:12;14.80;94.30
45983;DHT22;31711;47.158;7.346;2023-05-17T15:53:38;14.70;94.90
45983;DHT22;31711;47.158;7.346;2023-05-17T15:56:04;14.80;94.60
45983;DHT22;31711;47.158;7.346;2023-05-17T15:58:30;14.70;94.90
45983;DHT22;31711;47.158;7.346;2023-05-17T16:01:03;14.60;95.60